Time;durP1;ratioP1;P1;durP2;ratioP2;P2;SDS_P1;SDS_P2;PMS_P1;PMS_P2;Temp;Humidity;BMP_temperature;BMP_pressure;BME280_temperature;BME280_humidity;BME280_pressure;Samples;Min_cycle;Max_cycle;Signal;HPM_P1;HPM_P2
2020/12/25 00:01:11;;;;;;;1.47;1.37;;;7.10;99.90;;;;;;5018644;28;20682;-79
2020/12/25 00:03:41;;;;;;;2.47;2.00;;;7.10;99.90;;;;;;5021296;28;20260;-79
2020/12/25 00:06:08;;;;;;;2.00;1.90;;;7.10;99.90;;;;;;5020543;28;20209;-80
2020/12/25 00:08:34;;;;;;;3.10;1.80;;;7.10;99.90;;;;;;5020682;28;20204;-80
2020/12/25 00:11:02;;;;;;;1.70;1.47;;;7.10;99.90;;;;;;5019472;28;20279;-80
2020/12/25 00:13:29;;;;;;;2.03;1.80;;;7.10;99.90;;;;;;5021500;28;20228;-79
2020/12/25 00:15:57;;;;;;;2.50;1.60;;;7.10;99.90;;;;;;5022246;28;20558;-79
2020/12/25 00:18:23;;;;;;;2.33;1.60;;;7.00;99.90;;;;;;5022209;28;20213;-80
2020/12/25 00:20:52;;;;;;;1.80;1.70;;;7.00;99.90;;;;;;5020403;28;20235;-79
2020/12/25 00:23:19;;;;;;;2.40;1.37;;;6.90;99.90;;;;;;5008323;28;20236;-78
2020/12/25 00:25:46;;;;;;;2.17;1.60;;;6.90;99.90;;;;;;5011951;28;20369;-79
2020/12/25 00:28:13;;;;;;;1.50;1.40;;;6.90;99.90;;;;;;5028619;28;20208;-79
2020/12/25 00:30:43;;;;;;;1.53;1.43;;;6.90;99.90;;;;;;5029620;28;20200;-79
2020/12/25 00:33:12;;;;;;;1.50;1.30;;;6.90;99.90;;;;;;5025801;28;20189;-78
2020/12/25 00:35:42;;;;;;;2.70;1.40;;;6.90;99.90;;;;;;5012814;28;20737;-79
2020/12/25 00:38:09;;;;;;;1.60;1.40;;;6.90;99.90;;;;;;5015409;28;20253;-79
2020/12/25 00:40:45;;;;;;;1.77;1.30;;;6.90;99.90;;;;;;5018048;28;20263;-79
2020/12/25 00:43:14;;;;;;;1.63;1.37;;;6.90;99.90;;;;;;5017923;28;20871;-79
2020/12/25 00:45:41;;;;;;;1.60;1.50;;;6.90;99.90;;;;;;5016501;28;20666;-80
2020/12/25 00:48:08;;;;;;;1.30;1.20;;;6.90;99.90;;;;;;5017061;28;20209;-79
2020/12/25 00:50:34;;;;;;;1.50;1.40;;;6.90;99.90;;;;;;5017379;28;20204;-79
2020/12/25 00:53:01;;;;;;;1.60;1.30;;;6.90;99.90;;;;;;5016873;28;20433;-80
2020/12/25 00:55:28;;;;;;;2.87;1.40;;;6.90;99.90;;;;;;5019196;28;20244;-79
2020/12/25 00:57:55;;;;;;;1.40;1.30;;;6.90;99.90;;;;;;5017742;28;20675;-80
2020/12/25 01:00:22;;;;;;;1.20;1.10;;;6.90;99.90;;;;;;5018944;28;20238;-80
2020/12/25 01:02:49;;;;;;;1.63;1.27;;;6.90;99.90;;;;;;5017955;28;20223;-80
2020/12/25 01:05:16;;;;;;;1.60;1.50;;;6.90;99.90;;;;;;5019799;28;20221;-79
2020/12/25 01:07:43;;;;;;;1.67;1.30;;;7.00;99.90;;;;;;5017830;28;20640;-79
2020/12/25 01:10:11;;;;;;;1.20;1.10;;;7.00;99.90;;;;;;5018385;28;20201;-79
2020/12/25 01:12:37;;;;;;;1.43;1.20;;;7.00;99.90;;;;;;5018298;28;20204;-79
2020/12/25 01:15:04;;;;;;;1.47;1.20;;;7.00;99.90;;;;;;5017571;28;20786;-79
2020/12/25 01:17:31;;;;;;;0.80;0.80;;;7.00;99.90;;;;;;5019395;28;20224;-79
2020/12/25 01:19:58;;;;;;;1.23;1.00;;;7.00;99.90;;;;;;5018762;28;20694;-79
2020/12/25 01:22:25;;;;;;;1.33;1.00;;;7.00;99.90;;;;;;5019167;28;20201;-79
2020/12/25 01:24:52;;;;;;;4.00;1.70;;;7.00;99.90;;;;;;5019667;28;20200;-79
2020/12/25 01:27:19;;;;;;;3.00;1.70;;;6.90;99.90;;;;;;5021381;28;20243;-80
2020/12/25 01:29:46;;;;;;;3.20;1.47;;;6.90;99.90;;;;;;5019763;28;20212;-80
2020/12/25 01:32:13;;;;;;;1.33;1.23;;;6.80;99.90;;;;;;5020870;28;20201;-80
2020/12/25 01:34:40;;;;;;;3.10;1.13;;;6.80;99.90;;;;;;5021419;28;20205;-80
2020/12/25 01:37:07;;;;;;;1.53;1.10;;;6.70;99.90;;;;;;5020329;28;20205;-80
2020/12/25 01:39:34;;;;;;;1.20;1.10;;;6.70;99.90;;;;;;5020851;28;20236;-80
2020/12/25 01:42:00;;;;;;;1.37;1.10;;;6.60;99.90;;;;;;5022724;28;20200;-80
2020/12/25 01:44:28;;;;;;;4.37;0.93;;;6.50;99.90;;;;;;5021224;28;20204;-80
2020/12/25 01:46:55;;;;;;;1.10;1.00;;;6.50;99.90;;;;;;5022603;28;20689;-80
2020/12/25 01:49:22;;;;;;;1.77;1.13;;;6.40;99.90;;;;;;5022403;28;20231;-80
2020/12/25 01:51:50;;;;;;;1.43;0.80;;;6.30;99.90;;;;;;5021721;28;20195;-80
2020/12/25 01:54:17;;;;;;;1.27;0.90;;;6.30;99.90;;;;;;5018543;28;20555;-79
2020/12/25 01:56:44;;;;;;;1.57;1.07;;;6.20;99.90;;;;;;5015160;28;20208;-79
2020/12/25 01:59:11;;;;;;;0.60;0.60;;;6.20;99.90;;;;;;5014051;28;20294;-80
2020/12/25 02:01:38;;;;;;;0.93;0.77;;;6.20;99.90;;;;;;5015816;28;20240;-79
2020/12/25 02:04:05;;;;;;;0.83;0.60;;;6.10;99.90;;;;;;5023799;28;20210;-79
2020/12/25 02:06:39;;;;;;;0.70;0.60;;;6.10;99.90;;;;;;5033417;28;20274;-80
2020/12/25 02:09:07;;;;;;;1.50;0.63;;;6.10;99.90;;;;;;5036209;28;20253;-80
2020/12/25 02:11:36;;;;;;;0.60;0.60;;;6.00;99.90;;;;;;5036551;28;20352;-79
2020/12/25 02:14:03;;;;;;;0.50;0.43;;;6.00;99.90;;;;;;5033174;28;20659;-80
2020/12/25 02:16:31;;;;;;;2.10;0.60;;;6.00;99.90;;;;;;5036476;28;20250;-79
2020/12/25 02:18:57;;;;;;;2.73;0.80;;;5.90;99.90;;;;;;5035855;28;20207;-80
2020/12/25 02:21:25;;;;;;;0.53;0.50;;;5.90;99.90;;;;;;5034085;28;20245;-79
2020/12/25 02:23:51;;;;;;;1.13;0.83;;;5.90;99.90;;;;;;5035340;28;20613;-80
2020/12/25 02:26:18;;;;;;;1.03;0.80;;;5.80;99.90;;;;;;5027102;28;20225;-79
2020/12/25 02:28:45;;;;;;;0.60;0.53;;;5.80;99.90;;;;;;5017138;28;20208;-79
2020/12/25 02:31:13;;;;;;;0.47;0.47;;;5.80;99.90;;;;;;5015888;28;20230;-80
2020/12/25 02:33:41;;;;;;;0.63;0.63;;;5.70;99.90;;;;;;5025147;28;20288;-81
2020/12/25 02:36:08;;;;;;;1.07;0.70;;;5.70;99.90;;;;;;5039584;28;20218;-79
2020/12/25 02:38:34;;;;;;;1.27;0.80;;;5.60;99.90;;;;;;5038882;28;20196;-79
2020/12/25 02:41:01;;;;;;;0.93;0.70;;;5.60;99.90;;;;;;5039158;28;20202;-80
2020/12/25 02:43:28;;;;;;;1.50;0.80;;;5.60;99.90;;;;;;5032057;28;20712;-80
2020/12/25 02:45:55;;;;;;;0.93;0.60;;;5.50;99.90;;;;;;5020160;28;20259;-81
2020/12/25 02:48:22;;;;;;;0.83;0.70;;;5.50;99.90;;;;;;5019562;28;20200;-80
2020/12/25 02:50:49;;;;;;;0.73;0.67;;;5.40;99.90;;;;;;5019852;28;20237;-80
2020/12/25 02:53:16;;;;;;;0.83;0.73;;;5.40;99.90;;;;;;5022342;28;20209;-81
2020/12/25 02:55:43;;;;;;;1.27;0.87;;;5.40;99.90;;;;;;5022335;28;20190;-79
2020/12/25 02:58:11;;;;;;;1.67;1.13;;;5.30;99.90;;;;;;5022741;28;20298;-80
2020/12/25 03:00:38;;;;;;;0.77;0.77;;;5.30;99.90;;;;;;5021105;28;20292;-80
2020/12/25 03:03:04;;;;;;;0.97;0.87;;;5.30;99.90;;;;;;5021246;28;20191;-80
2020/12/25 03:05:33;;;;;;;1.00;0.97;;;5.20;99.90;;;;;;5020599;28;20748;-79
2020/12/25 03:07:59;;;;;;;1.23;1.13;;;5.20;99.90;;;;;;5022811;28;20317;-80
2020/12/25 03:10:26;;;;;;;2.57;1.30;;;5.10;99.90;;;;;;5021319;28;20356;-80
2020/12/25 03:12:52;;;;;;;1.60;1.20;;;5.10;99.90;;;;;;5021409;28;20210;-80
2020/12/25 03:15:19;;;;;;;1.30;1.20;;;5.00;99.90;;;;;;5022153;28;20207;-81
2020/12/25 03:17:46;;;;;;;1.10;1.00;;;5.00;99.90;;;;;;5023151;28;20233;-80
2020/12/25 03:20:13;;;;;;;2.50;1.50;;;4.90;99.90;;;;;;5023006;28;20217;-79
2020/12/25 03:22:40;;;;;;;2.33;1.50;;;4.90;99.90;;;;;;5021458;28;20206;-79
2020/12/25 03:25:08;;;;;;;2.60;1.30;;;4.80;99.90;;;;;;5018006;28;20212;-78
2020/12/25 03:27:36;;;;;;;1.67;1.57;;;4.80;99.90;;;;;;5012469;28;20301;-77
2020/12/25 03:30:04;;;;;;;1.50;1.40;;;4.70;99.90;;;;;;5013563;28;20206;-78
2020/12/25 03:32:31;;;;;;;1.57;1.47;;;4.70;99.90;;;;;;5013418;28;20203;-78
2020/12/25 03:34:58;;;;;;;1.47;1.13;;;4.60;99.90;;;;;;5014677;28;20226;-79
2020/12/25 03:37:26;;;;;;;1.40;1.10;;;4.60;99.90;;;;;;5013853;28;20733;-78
2020/12/25 03:39:53;;;;;;;1.50;1.40;;;4.60;99.90;;;;;;5014836;28;20236;-78
2020/12/25 03:42:20;;;;;;;2.67;1.50;;;4.60;99.90;;;;;;5014985;28;20201;-78
2020/12/25 03:44:54;;;;;;;1.43;1.33;;;4.50;99.90;;;;;;5014691;28;20198;-77
2020/12/25 03:47:24;;;;;;;1.63;1.53;;;4.50;99.90;;;;;;5014606;28;20225;-79
2020/12/25 03:49:52;;;;;;;2.57;1.50;;;4.50;99.90;;;;;;5015002;28;20668;-78
2020/12/25 03:52:22;;;;;;;1.80;1.70;;;4.40;99.90;;;;;;5015651;28;20221;-78
2020/12/25 03:54:50;;;;;;;1.50;1.40;;;4.40;99.90;;;;;;5012660;28;20691;-79
2020/12/25 03:57:17;;;;;;;1.80;1.40;;;4.30;99.90;;;;;;5009336;28;20650;-78
2020/12/25 03:59:43;;;;;;;2.00;1.80;;;4.30;99.90;;;;;;5009125;28;20230;-78
2020/12/25 04:02:11;;;;;;;1.57;1.30;;;4.30;99.90;;;;;;5010176;28;20233;-77
2020/12/25 04:04:38;;;;;;;1.53;1.30;;;4.20;99.90;;;;;;5010543;28;20213;-77
2020/12/25 04:07:06;;;;;;;1.40;1.30;;;4.20;99.90;;;;;;5009390;28;20657;-77
2020/12/25 04:09:33;;;;;;;1.53;1.40;;;4.30;99.90;;;;;;5010016;28;20213;-77
2020/12/25 04:12:00;;;;;;;1.50;1.40;;;4.20;99.90;;;;;;5008782;28;20525;-77
2020/12/25 04:14:27;;;;;;;1.70;1.47;;;4.20;99.90;;;;;;5010516;28;20662;-77
2020/12/25 04:16:54;;;;;;;2.23;1.30;;;4.20;99.90;;;;;;5009286;28;20209;-77
2020/12/25 04:19:21;;;;;;;1.53;1.43;;;4.20;99.90;;;;;;5011697;28;20616;-78
2020/12/25 04:21:48;;;;;;;2.37;1.40;;;4.20;99.90;;;;;;5012846;28;20249;-79
2020/12/25 04:24:15;;;;;;;2.43;1.40;;;4.20;99.90;;;;;;5015592;28;20201;-78
2020/12/25 04:26:48;;;;;;;1.43;1.20;;;4.20;99.90;;;;;;5015866;28;20213;-78
2020/12/25 04:29:14;;;;;;;1.30;1.20;;;4.20;99.90;;;;;;5016371;28;20200;-79
2020/12/25 04:31:42;;;;;;;1.13;1.03;;;4.20;99.90;;;;;;5016565;28;20231;-78
2020/12/25 04:34:09;;;;;;;1.90;1.60;;;4.10;99.90;;;;;;5016396;28;20680;-78
2020/12/25 04:36:36;;;;;;;1.50;1.40;;;4.10;99.90;;;;;;5016773;28;20203;-78
2020/12/25 04:39:04;;;;;;;1.57;1.47;;;4.10;99.90;;;;;;5016083;28;20202;-79
2020/12/25 04:41:32;;;;;;;1.53;1.43;;;4.10;99.90;;;;;;5016558;28;20758;-78
2020/12/25 04:44:00;;;;;;;1.80;1.40;;;4.10;99.90;;;;;;5016916;28;20253;-79
2020/12/25 04:46:27;;;;;;;1.63;1.30;;;4.10;99.90;;;;;;5016861;28;20221;-79
2020/12/25 04:48:54;;;;;;;1.30;1.20;;;4.10;99.90;;;;;;5016237;28;20216;-78
2020/12/25 04:51:21;;;;;;;1.47;1.20;;;4.10;99.90;;;;;;5015144;28;20208;-78
2020/12/25 04:53:50;;;;;;;1.53;1.43;;;4.10;99.90;;;;;;5014758;28;20605;-79
2020/12/25 04:56:22;;;;;;;1.90;1.60;;;4.10;99.90;;;;;;5015587;28;20205;-78
2020/12/25 04:58:50;;;;;;;1.60;1.50;;;4.10;99.90;;;;;;5014785;28;20202;-79
2020/12/25 05:01:17;;;;;;;2.13;1.93;;;4.10;99.90;;;;;;5012674;28;20291;-78
2020/12/25 05:03:45;;;;;;;1.67;1.57;;;4.10;99.90;;;;;;5011410;28;20211;-79
2020/12/25 05:06:14;;;;;;;1.80;1.70;;;4.00;99.90;;;;;;5011337;28;20602;-79
2020/12/25 05:08:43;;;;;;;2.63;1.47;;;4.00;99.90;;;;;;5012780;28;20228;-78
2020/12/25 05:11:15;;;;;;;1.40;1.30;;;4.00;99.90;;;;;;5010722;28;20216;-79
2020/12/25 05:13:53;;;;;;;3.30;2.00;;;4.00;99.90;;;;;;5010637;28;20890;-78
2020/12/25 05:16:22;;;;;;;1.57;1.47;;;4.00;99.90;;;;;;5010957;28;20658;-77
2020/12/25 05:18:51;;;;;;;1.77;1.50;;;4.00;99.90;;;;;;5011374;28;20240;-79
2020/12/25 05:21:21;;;;;;;1.53;1.43;;;4.00;99.90;;;;;;5010782;28;20200;-78
2020/12/25 05:23:49;;;;;;;1.90;1.70;;;4.00;99.90;;;;;;5011010;28;20209;-78
2020/12/25 05:26:17;;;;;;;3.97;1.70;;;3.90;99.90;;;;;;5017779;28;20216;-77
2020/12/25 05:28:47;;;;;;;2.63;2.30;;;4.00;99.90;;;;;;5030968;28;20675;-78
2020/12/25 05:31:18;;;;;;;1.67;1.40;;;4.00;99.90;;;;;;5031839;28;20257;-77
2020/12/25 05:33:49;;;;;;;1.40;1.30;;;4.00;99.90;;;;;;5023715;28;20206;-78
2020/12/25 05:36:17;;;;;;;1.60;1.50;;;4.00;99.90;;;;;;5012255;28;20194;-79
2020/12/25 05:38:48;;;;;;;2.20;1.50;;;3.90;99.90;;;;;;5012539;28;20217;-78
2020/12/25 05:41:16;;;;;;;1.70;1.60;;;4.00;99.90;;;;;;5010302;28;20208;-78
2020/12/25 05:43:51;;;;;;;1.90;1.70;;;4.00;99.90;;;;;;5011995;28;20197;-78
2020/12/25 05:46:18;;;;;;;2.13;1.80;;;3.90;99.90;;;;;;5011124;28;20271;-79
2020/12/25 05:48:52;;;;;;;2.33;1.90;;;3.90;99.90;;;;;;5011683;28;20266;-79
2020/12/25 05:51:22;;;;;;;2.30;1.83;;;3.90;99.90;;;;;;5011231;28;20272;-78
2020/12/25 05:53:53;;;;;;;2.03;1.60;;;3.90;99.90;;;;;;5011201;28;20652;-78
2020/12/25 05:56:20;;;;;;;2.40;1.87;;;3.90;99.90;;;;;;5011437;28;20731;-78
2020/12/25 05:58:50;;;;;;;2.07;1.70;;;3.90;99.90;;;;;;5012006;28;20246;-78
2020/12/25 06:01:17;;;;;;;2.90;2.00;;;3.90;99.90;;;;;;5012428;28;20229;-79
2020/12/25 06:03:45;;;;;;;2.17;1.90;;;3.90;99.90;;;;;;5011766;28;20655;-78
2020/12/25 06:06:14;;;;;;;1.70;1.60;;;3.80;99.90;;;;;;5012205;28;20205;-78
2020/12/25 06:08:50;;;;;;;2.20;2.00;;;3.90;99.90;;;;;;5014310;28;20201;-79
2020/12/25 06:11:28;;;;;;;1.70;1.60;;;3.80;99.90;;;;;;5014736;28;20212;-79
2020/12/25 06:13:56;;;;;;;1.53;1.43;;;3.80;99.90;;;;;;5015613;28;20221;-78
2020/12/25 06:16:23;;;;;;;1.70;1.60;;;3.80;99.90;;;;;;5016081;28;20255;-79
2020/12/25 06:19:49;;;;;;;3.97;2.50;;;3.80;99.90;;;;;;5016399;28;20209;-78
2020/12/25 06:22:22;;;;;;;2.17;1.97;;;3.80;99.90;;;;;;4978111;28;20237;-78
2020/12/25 06:24:52;;;;;;;1.87;1.77;;;3.80;99.90;;;;;;5016267;28;20619;-79
2020/12/25 06:27:24;;;;;;;2.83;2.10;;;3.80;99.90;;;;;;5016884;28;20280;-79
2020/12/25 06:29:57;;;;;;;2.23;1.70;;;3.80;99.90;;;;;;5016391;28;20181;-78
2020/12/25 06:32:24;;;;;;;2.93;2.17;;;3.70;99.90;;;;;;5016240;28;20185;-77
2020/12/25 06:34:53;;;;;;;2.17;1.90;;;3.70;99.90;;;;;;5016047;28;20260;-77
2020/12/25 06:37:19;;;;;;;2.07;1.87;;;3.70;99.90;;;;;;5017958;28;20220;-78
2020/12/25 06:39:48;;;;;;;2.23;2.03;;;3.70;99.90;;;;;;5017364;28;20348;-78
2020/12/25 06:42:38;;;;;;;1.93;1.83;;;3.70;99.90;;;;;;5016266;28;20216;-79
2020/12/25 06:45:10;;;;;;;1.97;1.77;;;3.70;99.90;;;;;;5016639;28;20647;-79
2020/12/25 06:47:39;;;;;;;2.10;1.83;;;3.70;99.90;;;;;;5015931;28;20209;-77
2020/12/25 06:50:12;;;;;;;1.83;1.73;;;3.70;99.90;;;;;;5016510;28;20687;-79
2020/12/25 06:52:56;;;;;;;2.20;2.00;;;3.70;99.90;;;;;;5016278;28;20643;-79
2020/12/25 06:55:24;;;;;;;2.37;2.10;;;3.70;99.90;;;;;;5018013;28;20231;-79
2020/12/25 06:57:55;;;;;;;2.60;2.40;;;3.60;99.90;;;;;;5016577;28;20204;-78
2020/12/25 07:00:23;;;;;;;2.43;2.10;;;3.60;99.90;;;;;;5016486;28;20221;-78
2020/12/25 07:02:49;;;;;;;2.60;2.03;;;3.60;99.90;;;;;;5016920;28;20197;-79
2020/12/25 07:05:17;;;;;;;2.77;2.57;;;3.60;99.90;;;;;;5017106;28;20216;-77
2020/12/25 07:07:44;;;;;;;2.43;2.23;;;3.60;99.90;;;;;;5016444;28;20280;-79
2020/12/25 07:10:12;;;;;;;2.23;2.03;;;3.60;99.90;;;;;;5016322;28;20239;-79
2020/12/25 07:12:40;;;;;;;2.50;2.30;;;3.60;99.90;;;;;;5018225;28;20229;-79
2020/12/25 07:15:08;;;;;;;2.63;2.43;;;3.60;99.90;;;;;;5016582;28;20748;-79
2020/12/25 07:17:36;;;;;;;2.63;2.43;;;3.60;99.90;;;;;;5016783;28;20748;-79
2020/12/25 07:20:08;;;;;;;2.60;2.40;;;3.60;99.90;;;;;;5016857;28;20208;-78
2020/12/25 07:22:35;;;;;;;2.83;2.40;;;3.60;99.90;;;;;;5016316;28;20768;-78
2020/12/25 07:25:08;;;;;;;2.73;2.53;;;3.60;99.90;;;;;;5016489;28;20193;-79
2020/12/25 07:27:35;;;;;;;3.00;2.70;;;3.60;99.90;;;;;;5017421;28;20214;-78
2020/12/25 07:30:04;;;;;;;2.97;2.60;;;3.60;99.90;;;;;;5018168;28;20258;-78
2020/12/25 07:32:31;;;;;;;2.77;2.57;;;3.60;99.90;;;;;;5016092;28;20713;-78
2020/12/25 07:35:04;;;;;;;2.90;2.60;;;3.60;99.90;;;;;;5018961;28;20232;-79
2020/12/25 07:37:31;;;;;;;2.50;2.30;;;3.60;99.90;;;;;;5017737;28;20654;-78
2020/12/25 07:40:03;;;;;;;2.73;2.53;;;3.60;99.90;;;;;;5016994;28;20263;-78
2020/12/25 07:42:29;;;;;;;4.90;2.90;;;3.60;99.90;;;;;;5017661;28;20259;-79
2020/12/25 07:44:59;;;;;;;2.93;2.63;;;3.60;99.90;;;;;;5017623;28;20274;-77
2020/12/25 07:47:26;;;;;;;3.00;2.70;;;3.60;99.90;;;;;;5016575;28;20231;-79
2020/12/25 07:49:53;;;;;;;3.30;3.00;;;3.70;99.90;;;;;;5018226;28;20208;-79
2020/12/25 07:52:21;;;;;;;2.77;2.50;;;3.70;99.90;;;;;;5018938;28;20271;-79
2020/12/25 07:54:48;;;;;;;3.07;2.80;;;3.70;99.90;;;;;;5017074;28;20621;-79
2020/12/25 07:57:17;;;;;;;3.03;2.73;;;3.70;99.90;;;;;;5015365;28;20228;-79
2020/12/25 07:59:46;;;;;;;3.33;3.03;;;3.80;99.90;;;;;;5015048;28;20225;-79
2020/12/25 08:02:13;;;;;;;2.97;2.63;;;3.70;99.90;;;;;;5012993;28;20287;-77
2020/12/25 08:04:41;;;;;;;3.20;2.90;;;3.80;99.90;;;;;;5009752;28;20283;-77
2020/12/25 08:07:09;;;;;;;3.03;2.73;;;3.80;99.90;;;;;;5009628;28;20221;-77
2020/12/25 08:09:37;;;;;;;2.87;2.67;;;3.80;99.90;;;;;;5009270;28;20671;-77
2020/12/25 08:12:10;;;;;;;3.03;2.73;;;3.80;99.90;;;;;;5009474;28;20201;-77
2020/12/25 08:14:39;;;;;;;3.63;3.07;;;3.80;99.90;;;;;;5009277;28;20183;-77
2020/12/25 08:17:09;;;;;;;5.20;2.97;;;3.80;99.90;;;;;;5009004;28;20247;-77
2020/12/25 08:19:36;;;;;;;2.90;2.70;;;3.80;99.90;;;;;;5009301;28;20240;-77
2020/12/25 08:22:08;;;;;;;3.67;2.90;;;3.90;99.90;;;;;;5009106;28;20224;-77
2020/12/25 08:24:36;;;;;;;3.20;2.90;;;3.90;99.90;;;;;;5009151;28;20291;-77
2020/12/25 08:27:04;;;;;;;3.00;2.50;;;3.90;99.90;;;;;;5023357;28;20259;-77
2020/12/25 08:29:32;;;;;;;3.03;2.83;;;3.90;99.90;;;;;;5029188;28;20204;-77
2020/12/25 08:32:06;;;;;;;2.90;2.70;;;3.90;99.90;;;;;;5029444;28;20209;-78
2020/12/25 08:34:33;;;;;;;3.20;2.70;;;3.90;99.90;;;;;;5016962;28;20673;-77
2020/12/25 08:37:03;;;;;;;3.50;3.10;;;3.90;99.90;;;;;;5010720;28;20216;-77
2020/12/25 08:39:31;;;;;;;4.97;3.40;;;3.90;99.90;;;;;;5012473;28;20594;-78
2020/12/25 08:41:59;;;;;;;3.43;3.13;;;3.90;99.90;;;;;;5013422;28;20240;-78
2020/12/25 08:44:26;;;;;;;3.53;2.97;;;3.90;99.90;;;;;;5013649;28;20259;-78
2020/12/25 08:47:09;;;;;;;3.83;3.47;;;3.90;99.90;;;;;;5011602;28;20244;-78
2020/12/25 08:49:36;;;;;;;3.20;2.90;;;3.90;99.90;;;;;;5011270;28;20655;-78
2020/12/25 08:52:20;;;;;;;4.37;3.10;;;3.90;99.90;;;;;;5011064;28;20237;-78
2020/12/25 08:54:57;;;;;;;3.50;3.10;;;3.90;99.90;;;;;;5011343;28;20177;-78
2020/12/25 08:57:24;;;;;;;3.53;3.23;;;3.90;99.90;;;;;;5012310;28;20185;-78
2020/12/25 09:00:09;;;;;;;4.23;2.97;;;3.90;99.90;;;;;;5012366;28;20224;-78
2020/12/25 09:02:37;;;;;;;3.37;3.07;;;4.00;99.90;;;;;;5011593;28;20248;-78
2020/12/25 09:05:04;;;;;;;4.23;3.83;;;4.00;99.90;;;;;;5013928;28;20666;-79
2020/12/25 09:07:31;;;;;;;3.20;2.90;;;4.00;99.90;;;;;;5012920;28;20690;-78
2020/12/25 09:09:58;;;;;;;4.03;3.40;;;4.10;99.90;;;;;;5012071;28;20205;-79
2020/12/25 09:12:25;;;;;;;3.53;3.23;;;4.10;99.90;;;;;;5012406;28;20300;-79
2020/12/25 09:14:51;;;;;;;3.70;3.40;;;4.10;99.90;;;;;;5012197;28;20720;-78
2020/12/25 09:17:18;;;;;;;3.53;3.23;;;4.10;99.90;;;;;;5012134;28;20731;-78
2020/12/25 09:19:44;;;;;;;3.20;2.73;;;4.10;99.90;;;;;;5012614;28;20205;-78
2020/12/25 09:22:11;;;;;;;3.50;3.20;;;4.10;99.90;;;;;;5013083;28;20686;-78
2020/12/25 09:24:38;;;;;;;3.57;3.27;;;4.10;99.90;;;;;;5011790;28;20568;-78
2020/12/25 09:27:05;;;;;;;4.10;3.70;;;4.10;99.90;;;;;;5012927;28;20309;-79
2020/12/25 09:29:33;;;;;;;3.87;3.53;;;4.10;99.90;;;;;;5012564;28;20193;-79
2020/12/25 09:32:00;;;;;;;6.10;3.10;;;4.10;99.90;;;;;;5012592;28;20196;-79
2020/12/25 09:34:27;;;;;;;4.13;3.73;;;4.20;99.90;;;;;;5012784;28;20263;-78
2020/12/25 09:36:54;;;;;;;3.40;3.10;;;4.20;99.90;;;;;;5014834;28;20212;-78
2020/12/25 09:39:21;;;;;;;3.90;3.50;;;4.30;99.90;;;;;;5012172;28;20224;-79
2020/12/25 09:41:50;;;;;;;3.07;2.87;;;4.30;99.90;;;;;;5013484;28;20617;-77
2020/12/25 09:44:18;;;;;;;3.20;2.90;;;4.30;99.90;;;;;;5015783;28;20212;-78
2020/12/25 09:46:44;;;;;;;3.17;2.87;;;4.30;99.90;;;;;;5018372;28;20200;-79
2020/12/25 09:49:11;;;;;;;4.67;3.00;;;4.30;99.90;;;;;;5016449;28;20579;-78
2020/12/25 09:51:37;;;;;;;3.20;2.80;;;4.40;99.90;;;;;;5016015;28;20235;-78
2020/12/25 09:54:05;;;;;;;3.30;3.00;;;4.40;99.90;;;;;;5015905;28;20197;-79
2020/12/25 09:56:31;;;;;;;2.70;2.50;;;4.50;99.90;;;;;;5016659;28;20209;-78
2020/12/25 09:58:59;;;;;;;2.63;2.43;;;4.50;99.90;;;;;;5016655;28;20232;-79
2020/12/25 10:01:26;;;;;;;3.00;2.70;;;4.50;99.90;;;;;;5017053;28;20328;-79
2020/12/25 10:03:53;;;;;;;2.63;2.43;;;4.50;99.90;;;;;;5017480;28;20236;-79
2020/12/25 10:06:20;;;;;;;2.60;2.40;;;4.50;99.90;;;;;;5016259;28;20606;-79
2020/12/25 10:08:47;;;;;;;2.77;2.17;;;4.40;99.90;;;;;;5017073;28;20229;-77
2020/12/25 10:11:18;;;;;;;1.93;1.77;;;4.40;99.90;;;;;;5017328;28;20194;-79
2020/12/25 10:13:45;;;;;;;2.50;2.30;;;4.40;99.90;;;;;;5016930;28;20189;-79
2020/12/25 10:16:11;;;;;;;2.63;2.20;;;4.40;99.90;;;;;;5016260;28;20212;-78
2020/12/25 10:18:39;;;;;;;3.33;2.70;;;4.50;99.90;;;;;;5018296;28;20761;-77
2020/12/25 10:21:06;;;;;;;2.73;2.53;;;4.50;99.90;;;;;;5017224;28;20209;-79
2020/12/25 10:23:33;;;;;;;1.77;1.67;;;4.50;99.90;;;;;;5017099;28;20670;-79
2020/12/25 10:26:00;;;;;;;1.70;1.60;;;4.50;99.90;;;;;;5017731;28;20206;-79
2020/12/25 10:28:27;;;;;;;2.00;1.90;;;4.60;99.90;;;;;;5016750;28;20226;-78
2020/12/25 10:30:54;;;;;;;2.33;1.70;;;4.60;99.90;;;;;;5017557;28;20201;-79
2020/12/25 10:33:21;;;;;;;2.20;2.00;;;4.60;99.90;;;;;;5017436;28;20667;-79
2020/12/25 10:35:48;;;;;;;1.93;1.80;;;4.70;99.90;;;;;;5017831;28;20209;-79
2020/12/25 10:38:15;;;;;;;1.83;1.57;;;4.70;99.90;;;;;;5017662;28;20209;-78
2020/12/25 10:40:42;;;;;;;1.87;1.50;;;4.70;99.90;;;;;;5017627;28;20194;-79
2020/12/25 10:43:09;;;;;;;1.50;1.40;;;4.60;99.90;;;;;;5017527;28;20201;-79
2020/12/25 10:45:36;;;;;;;1.40;1.30;;;4.60;99.90;;;;;;5018948;28;20213;-78
2020/12/25 10:48:03;;;;;;;1.50;1.40;;;4.60;99.90;;;;;;5017688;28;20217;-79
2020/12/25 10:50:30;;;;;;;1.60;1.50;;;4.60;99.90;;;;;;5018518;28;20207;-78
2020/12/25 10:52:56;;;;;;;2.07;1.70;;;4.60;99.90;;;;;;5017478;28;20579;-79
2020/12/25 10:55:23;;;;;;;2.03;1.83;;;4.60;99.90;;;;;;5018691;28;20198;-79
2020/12/25 10:57:50;;;;;;;1.50;1.40;;;4.60;99.90;;;;;;5018244;28;20279;-79
2020/12/25 11:00:17;;;;;;;1.97;1.83;;;4.60;99.90;;;;;;5016978;28;20220;-79
2020/12/25 11:02:43;;;;;;;1.93;1.83;;;4.50;99.90;;;;;;5016090;28;20240;-79
2020/12/25 11:05:14;;;;;;;2.17;2.00;;;4.50;99.90;;;;;;5019500;28;20267;-78
2020/12/25 11:07:41;;;;;;;1.90;1.80;;;4.40;99.90;;;;;;5012697;28;20240;-79
2020/12/25 11:10:08;;;;;;;2.47;2.27;;;4.40;99.90;;;;;;5013310;28;20201;-77
2020/12/25 11:12:36;;;;;;;2.30;2.10;;;4.30;99.90;;;;;;5012774;28;20231;-78
2020/12/25 11:15:03;;;;;;;2.50;2.30;;;4.40;99.90;;;;;;5013011;28;20197;-78
2020/12/25 11:17:30;;;;;;;2.47;2.27;;;4.40;99.90;;;;;;5012820;28;20205;-78
2020/12/25 11:19:58;;;;;;;3.10;2.70;;;4.40;99.90;;;;;;5013898;28;20212;-79
2020/12/25 11:22:27;;;;;;;2.60;2.40;;;4.30;99.90;;;;;;5012931;28;20629;-77
2020/12/25 11:24:54;;;;;;;2.63;2.43;;;4.30;99.90;;;;;;5012791;28;20263;-77
2020/12/25 11:27:21;;;;;;;2.50;2.30;;;4.30;99.90;;;;;;5014222;28;20229;-77
2020/12/25 11:29:47;;;;;;;2.73;2.50;;;4.30;99.90;;;;;;5012486;28;20202;-77
2020/12/25 11:32:14;;;;;;;3.17;2.83;;;4.30;99.90;;;;;;5013437;28;20201;-78
2020/12/25 11:34:42;;;;;;;2.60;2.40;;;4.30;99.90;;;;;;5013898;28;20213;-79
2020/12/25 11:37:09;;;;;;;2.47;2.27;;;4.20;99.90;;;;;;5013962;28;20216;-78
2020/12/25 11:39:36;;;;;;;2.67;2.43;;;4.20;99.90;;;;;;5012877;28;20252;-78
2020/12/25 11:42:04;;;;;;;3.07;2.43;;;4.10;99.90;;;;;;5014386;28;20201;-79
2020/12/25 11:44:31;;;;;;;3.10;2.87;;;4.10;99.90;;;;;;5012983;28;20209;-78
2020/12/25 11:46:58;;;;;;;3.90;2.43;;;4.10;99.90;;;;;;5012989;28;20483;-78
2020/12/25 11:49:25;;;;;;;3.30;3.00;;;4.10;99.90;;;;;;5012964;28;20204;-78
2020/12/25 11:51:58;;;;;;;3.27;2.87;;;4.10;99.90;;;;;;5013149;28;20228;-78
2020/12/25 11:54:25;;;;;;;3.27;2.90;;;4.10;99.90;;;;;;5013786;28;20204;-78
2020/12/25 11:56:53;;;;;;;2.77;2.53;;;4.10;99.90;;;;;;5015852;28;20236;-78
2020/12/25 11:59:20;;;;;;;3.10;2.80;;;4.10;99.90;;;;;;5013590;28;20232;-78
2020/12/25 12:01:47;;;;;;;3.40;2.93;;;4.00;99.90;;;;;;5012926;28;20614;-79
2020/12/25 12:04:14;;;;;;;3.27;2.97;;;3.90;99.90;;;;;;5024235;28;20209;-79
2020/12/25 12:06:41;;;;;;;3.33;3.03;;;4.00;99.90;;;;;;5028693;28;20201;-78
2020/12/25 12:09:08;;;;;;;3.67;3.00;;;4.00;99.90;;;;;;5029039;28;20204;-78
2020/12/25 12:11:41;;;;;;;3.83;3.07;;;4.00;99.90;;;;;;5029638;28;20617;-78
2020/12/25 12:14:08;;;;;;;2.83;2.63;;;4.00;99.90;;;;;;5028836;28;20185;-78
2020/12/25 12:16:36;;;;;;;3.20;2.90;;;4.00;99.90;;;;;;5029166;28;20200;-78
2020/12/25 12:19:08;;;;;;;2.87;2.60;;;4.00;99.90;;;;;;5031841;28;20196;-78
2020/12/25 12:21:34;;;;;;;3.20;2.77;;;4.00;99.90;;;;;;5032496;28;20542;-79
2020/12/25 12:24:03;;;;;;;2.57;2.30;;;4.00;99.90;;;;;;5034352;28;20212;-79
2020/12/25 12:26:30;;;;;;;2.20;2.00;;;4.00;99.90;;;;;;5024642;28;20249;-79
2020/12/25 12:28:57;;;;;;;2.83;2.63;;;4.00;99.90;;;;;;5013487;28;20225;-79
2020/12/25 12:31:25;;;;;;;2.70;2.50;;;4.00;99.90;;;;;;5013561;28;20626;-79
2020/12/25 12:33:52;;;;;;;2.93;2.60;;;4.00;99.90;;;;;;5013836;28;20217;-79
2020/12/25 12:36:19;;;;;;;2.30;2.10;;;4.10;99.90;;;;;;5014736;28;20601;-78
2020/12/25 12:38:45;;;;;;;2.23;2.03;;;4.10;99.90;;;;;;5009048;28;20267;-77
2020/12/25 12:41:13;;;;;;;1.70;1.60;;;4.10;99.90;;;;;;5009190;28;20671;-77
2020/12/25 12:43:40;;;;;;;2.40;2.20;;;4.10;99.90;;;;;;5010383;28;20209;-77
2020/12/25 12:46:07;;;;;;;2.00;1.87;;;4.10;99.90;;;;;;5009933;28;20198;-77
2020/12/25 12:48:37;;;;;;;1.70;1.60;;;4.00;99.90;;;;;;5009904;28;20245;-78
2020/12/25 12:51:03;;;;;;;1.73;1.63;;;4.00;99.90;;;;;;5008596;28;20201;-78
2020/12/25 12:53:30;;;;;;;1.60;1.50;;;3.90;99.90;;;;;;5009288;28;20198;-78
2020/12/25 12:55:56;;;;;;;1.80;1.60;;;3.90;99.90;;;;;;5011150;28;20229;-78
2020/12/25 12:58:23;;;;;;;1.40;1.30;;;3.90;99.90;;;;;;5013453;28;20208;-79
2020/12/25 13:00:57;;;;;;;1.63;1.53;;;3.90;99.90;;;;;;5014563;28;20336;-78
2020/12/25 13:03:24;;;;;;;1.93;1.83;;;3.90;99.90;;;;;;5013930;28;20223;-78